createdAt,value
2017-06-09T00:00:12.319Z,52.20
2017-06-09T00:02:40.378Z,52.60
2017-06-09T00:05:08.451Z,52.80
2017-06-09T00:07:36.499Z,53.00
2017-06-09T00:10:05.358Z,52.80
2017-06-09T00:12:33.418Z,52.70
2017-06-09T00:15:01.501Z,52.70
2017-06-09T00:17:29.572Z,52.80
2017-06-09T00:19:57.619Z,52.30
2017-06-09T00:22:26.687Z,52.40
2017-06-09T00:24:54.750Z,52.40
2017-06-09T00:27:22.796Z,52.30
2017-06-09T00:29:51.671Z,52.40
2017-06-09T00:32:19.745Z,52.30
2017-06-09T00:34:47.801Z,52.20
2017-06-09T00:37:15.889Z,52.30
2017-06-09T00:39:43.931Z,52.40
2017-06-09T00:42:12.005Z,52.00
2017-06-09T00:44:40.077Z,52.20
2017-06-09T00:47:08.143Z,51.90
2017-06-09T00:49:36.188Z,52.30
2017-06-09T00:52:05.407Z,52.20
2017-06-09T00:54:34.402Z,51.90
2017-06-09T00:57:02.472Z,51.90
2017-06-09T00:59:30.529Z,52.20
2017-06-09T01:01:58.578Z,51.60
2017-06-09T01:04:27.418Z,51.80
2017-06-09T01:06:55.471Z,51.80
2017-06-09T01:09:23.558Z,52.20
2017-06-09T01:11:52.373Z,52.30
2017-06-09T01:14:20.426Z,52.30
2017-06-09T01:16:48.498Z,52.40
2017-06-09T01:19:16.562Z,52.60
2017-06-09T01:21:44.639Z,52.80
2017-06-09T01:24:12.703Z,52.90
2017-06-09T01:26:40.772Z,53.20
2017-06-09T01:29:08.837Z,53.10
2017-06-09T01:31:36.903Z,53.10
2017-06-09T01:34:04.995Z,53.50
2017-06-09T01:36:33.040Z,53.50
2017-06-09T01:39:01.099Z,52.60
2017-06-09T01:41:29.166Z,53.90
2017-06-09T01:43:57.323Z,53.40
2017-06-09T01:46:26.131Z,53.00
2017-06-09T01:48:54.235Z,53.00
2017-06-09T01:51:22.307Z,53.20
2017-06-09T01:53:50.383Z,53.30
2017-06-09T01:56:18.452Z,53.70
2017-06-09T01:58:46.515Z,53.90
2017-06-09T02:01:14.570Z,53.80
2017-06-09T02:03:42.659Z,53.80
2017-06-09T02:06:10.707Z,53.70
2017-06-09T02:08:38.757Z,53.70
2017-06-09T02:11:06.830Z,53.60
2017-06-09T02:13:34.875Z,53.90
2017-06-09T02:16:03.695Z,54.00
2017-06-09T02:18:31.788Z,53.90
2017-06-09T02:20:59.839Z,53.50
2017-06-09T02:23:27.899Z,52.90
2017-06-09T02:25:55.981Z,53.30
2017-06-09T02:28:24.052Z,53.20
2017-06-09T02:30:52.115Z,53.40
2017-06-09T02:33:20.183Z,53.50
2017-06-09T02:35:48.248Z,54.20
2017-06-09T02:38:16.323Z,53.50
2017-06-09T02:40:44.390Z,53.60
2017-06-09T02:43:12.457Z,53.90
2017-06-09T02:45:40.530Z,53.80
2017-06-09T02:48:08.587Z,53.80
2017-06-09T02:50:36.652Z,53.80
2017-06-09T02:53:04.716Z,53.90
2017-06-09T02:55:32.768Z,53.80
2017-06-09T02:58:00.835Z,53.70
2017-06-09T03:00:28.904Z,53.70
2017-06-09T03:02:56.968Z,53.50
2017-06-09T03:05:25.015Z,52.70
2017-06-09T03:07:53.859Z,51.80
2017-06-09T03:10:21.916Z,51.70
2017-06-09T03:12:49.995Z,52.30
2017-06-09T03:15:18.079Z,52.50
2017-06-09T03:17:46.427Z,52.60
2017-06-09T03:20:14.487Z,52.60
2017-06-09T03:22:42.570Z,52.50
2017-06-09T03:25:10.615Z,52.60
2017-06-09T03:27:39.453Z,53.00
2017-06-09T03:30:07.522Z,52.90
2017-06-09T03:32:41.299Z,53.10
2017-06-09T03:35:10.124Z,53.40
2017-06-09T03:37:38.192Z,53.30
2017-06-09T03:40:06.264Z,53.50
2017-06-09T03:42:34.303Z,53.50
2017-06-09T03:45:03.129Z,53.60
2017-06-09T03:47:31.195Z,53.50
2017-06-09T03:49:59.255Z,53.60
2017-06-09T03:52:28.083Z,52.20
2017-06-09T03:54:56.150Z,52.10
2017-06-09T03:57:24.211Z,51.20
2017-06-09T03:59:52.279Z,51.10
2017-06-09T04:02:20.380Z,51.10
2017-06-09T04:04:48.444Z,50.10
2017-06-09T04:07:16.510Z,50.70
2017-06-09T04:09:44.575Z,50.20
2017-06-09T04:12:12.646Z,50.00
2017-06-09T04:14:40.723Z,50.20
2017-06-09T04:17:08.779Z,49.90
2017-06-09T04:19:36.835Z,49.70
2017-06-09T04:22:04.907Z,49.80
2017-06-09T04:24:33.035Z,50.60
2017-06-09T04:27:01.076Z,49.60
2017-06-09T04:29:29.152Z,49.30
2017-06-09T04:31:57.219Z,49.50
2017-06-09T04:34:25.287Z,49.00
2017-06-09T04:36:54.130Z,48.90
2017-06-09T04:39:22.187Z,48.80
2017-06-09T04:41:50.268Z,49.30
2017-06-09T04:44:18.328Z,49.10
2017-06-09T04:46:46.387Z,48.50
2017-06-09T04:49:14.463Z,48.80
2017-06-09T04:51:42.516Z,48.60
2017-06-09T04:54:11.354Z,48.70
2017-06-09T04:56:39.415Z,48.60
2017-06-09T04:59:07.465Z,48.50
2017-06-09T05:01:35.639Z,48.50
2017-06-09T05:04:04.439Z,47.80
2017-06-09T05:06:32.495Z,47.80
2017-06-09T05:09:00.578Z,48.10
2017-06-09T05:11:28.647Z,48.20
2017-06-09T05:13:56.712Z,48.20
2017-06-09T05:16:24.782Z,47.80
2017-06-09T05:18:52.831Z,47.70
2017-06-09T05:21:21.655Z,46.60
2017-06-09T05:23:51.524Z,46.60
2017-06-09T05:26:20.365Z,47.50
2017-06-09T05:28:48.430Z,47.50
2017-06-09T05:31:16.483Z,47.40
2017-06-09T05:33:44.530Z,46.70
2017-06-09T05:36:13.398Z,45.80
2017-06-09T05:38:41.462Z,45.70
2017-06-09T05:41:09.547Z,46.10
2017-06-09T05:43:37.620Z,46.80
2017-06-09T05:46:05.690Z,46.90
2017-06-09T05:48:33.755Z,47.40
2017-06-09T05:51:01.804Z,46.80
2017-06-09T05:53:29.882Z,46.10
2017-06-09T05:55:57.934Z,46.10
2017-06-09T05:58:25.994Z,46.20
2017-06-09T06:00:54.061Z,46.90
2017-06-09T06:03:22.108Z,46.30
2017-06-09T06:05:50.931Z,47.00
2017-06-09T06:08:19.002Z,46.90
2017-06-09T06:10:47.064Z,47.10
2017-06-09T06:13:15.110Z,46.90
2017-06-09T06:15:43.950Z,46.80
2017-06-09T06:18:12.007Z,46.70
2017-06-09T06:20:40.067Z,47.10
2017-06-09T06:23:08.144Z,47.00
2017-06-09T06:25:36.184Z,47.10
2017-06-09T06:28:04.239Z,46.60
2017-06-09T06:30:33.067Z,47.40
2017-06-09T06:33:01.131Z,46.60
2017-06-09T06:35:29.203Z,46.10
2017-06-09T06:37:57.258Z,45.90
2017-06-09T06:40:25.345Z,44.90
2017-06-09T06:42:53.408Z,44.60
2017-06-09T06:45:21.462Z,43.70
2017-06-09T06:47:49.548Z,43.50
2017-06-09T06:50:18.463Z,43.50
2017-06-09T06:52:46.514Z,43.20
2017-06-09T06:55:14.582Z,43.60
2017-06-09T06:57:42.649Z,43.60
2017-06-09T07:00:10.696Z,44.60
2017-06-09T07:02:39.540Z,45.20
2017-06-09T07:05:07.647Z,45.00
2017-06-09T07:07:35.696Z,44.30
2017-06-09T07:10:03.756Z,44.80
2017-06-09T07:12:31.819Z,44.50
2017-06-09T07:14:59.879Z,43.80
2017-06-09T07:17:28.038Z,44.70
2017-06-09T07:19:56.850Z,44.00
2017-06-09T07:22:24.920Z,43.90
2017-06-09T07:24:52.995Z,42.30
2017-06-09T07:27:21.056Z,43.00
2017-06-09T07:29:49.110Z,43.00
2017-06-09T07:32:17.187Z,43.90
2017-06-09T07:34:45.250Z,43.50
2017-06-09T07:37:13.307Z,43.20
2017-06-09T07:39:41.375Z,43.40
2017-06-09T07:42:09.427Z,41.40
2017-06-09T07:44:37.501Z,40.20
2017-06-09T07:47:05.556Z,40.70
2017-06-09T07:49:33.622Z,41.10
2017-06-09T07:52:01.692Z,41.00
2017-06-09T07:54:29.738Z,41.10
2017-06-09T07:56:58.590Z,41.00
2017-06-09T07:59:26.646Z,40.30
2017-06-09T08:01:54.698Z,40.90
2017-06-09T08:04:22.776Z,40.60
2017-06-09T08:06:50.846Z,39.90
2017-06-09T08:09:18.903Z,40.70
2017-06-09T08:11:46.998Z,40.20
2017-06-09T08:14:15.055Z,40.10
2017-06-09T08:16:43.122Z,41.20
2017-06-09T08:19:11.350Z,42.00
2017-06-09T08:21:39.463Z,43.20
2017-06-09T08:24:08.290Z,44.40
2017-06-09T08:26:36.355Z,44.40
2017-06-09T08:29:04.427Z,42.20
2017-06-09T08:31:32.483Z,43.00
2017-06-09T08:34:00.547Z,43.60
2017-06-09T08:36:28.706Z,44.10
2017-06-09T08:38:56.771Z,44.40
2017-06-09T08:41:24.810Z,45.10
2017-06-09T08:43:52.895Z,46.10
2017-06-09T08:46:21.030Z,43.40
2017-06-09T08:48:49.427Z,43.20
2017-06-09T08:51:17.482Z,44.50
2017-06-09T08:53:45.558Z,45.30
2017-06-09T08:56:13.625Z,44.80
2017-06-09T08:58:41.736Z,45.20
2017-06-09T09:01:09.786Z,45.40
2017-06-09T09:03:37.859Z,46.20
2017-06-09T09:06:05.923Z,47.10
2017-06-09T09:08:34.007Z,46.80
2017-06-09T09:11:02.072Z,46.80
2017-06-09T09:13:30.162Z,46.90
2017-06-09T09:15:58.292Z,47.30
2017-06-09T09:18:27.095Z,48.20
2017-06-09T09:20:55.166Z,48.20
2017-06-09T09:23:23.232Z,48.70
2017-06-09T09:25:51.294Z,49.00
2017-06-09T09:28:19.367Z,48.70
2017-06-09T09:30:47.440Z,49.40
2017-06-09T09:33:15.501Z,49.70
2017-06-09T09:35:43.579Z,50.20
2017-06-09T09:38:11.631Z,49.70
2017-06-09T09:40:39.681Z,49.80
2017-06-09T09:43:07.885Z,49.60
2017-06-09T09:45:35.927Z,50.10
2017-06-09T09:48:03.996Z,49.50
2017-06-09T09:50:32.071Z,48.80
2017-06-09T09:53:00.126Z,49.60
2017-06-09T09:55:28.192Z,50.80
2017-06-09T09:57:56.282Z,49.80
2017-06-09T10:00:24.355Z,50.40
2017-06-09T10:02:52.418Z,51.20
2017-06-09T10:05:20.490Z,52.10
2017-06-09T10:07:48.563Z,51.20
2017-06-09T10:10:16.615Z,50.90
2017-06-09T10:12:44.684Z,51.30
2017-06-09T10:15:12.803Z,51.80
2017-06-09T10:17:40.851Z,52.70
2017-06-09T10:20:08.920Z,55.30
2017-06-09T10:22:36.983Z,56.30
2017-06-09T10:25:05.038Z,58.80
2017-06-09T10:27:33.090Z,58.80
2017-06-09T10:30:01.928Z,61.60
2017-06-09T10:32:30.374Z,61.60
2017-06-09T10:34:59.168Z,63.50
2017-06-09T10:37:27.235Z,63.40
2017-06-09T10:39:55.328Z,64.60
2017-06-09T10:42:23.487Z,65.90
2017-06-09T10:44:51.519Z,67.50
2017-06-09T10:47:19.580Z,69.70
2017-06-09T10:49:47.643Z,70.40
2017-06-09T10:52:15.714Z,72.90
2017-06-09T10:54:43.796Z,73.80
2017-06-09T10:57:11.827Z,75.80
2017-06-09T10:59:39.938Z,77.60
2017-06-09T11:02:07.980Z,78.10
2017-06-09T11:04:36.043Z,81.10
2017-06-09T11:07:04.124Z,82.80
2017-06-09T11:09:32.191Z,81.10
2017-06-09T11:12:00.275Z,80.80
2017-06-09T11:14:28.330Z,79.90
2017-06-09T11:16:56.401Z,80.60
2017-06-09T11:19:24.471Z,82.30
2017-06-09T11:21:52.616Z,82.30
2017-06-09T11:24:21.431Z,83.10
2017-06-09T11:26:49.491Z,83.00
2017-06-09T11:29:17.554Z,82.90
2017-06-09T11:31:45.642Z,84.60
2017-06-09T11:34:13.703Z,81.80
2017-06-09T11:36:41.799Z,82.40
2017-06-09T11:39:09.860Z,83.90
2017-06-09T11:41:38.730Z,84.70
2017-06-09T11:44:06.790Z,84.70
2017-06-09T11:46:34.851Z,85.70
2017-06-09T11:49:02.936Z,85.10
2017-06-09T11:51:31.063Z,85.00
2017-06-09T11:54:00.789Z,85.20
2017-06-09T11:56:28.838Z,85.10
2017-06-09T11:58:56.948Z,81.50
2017-06-09T12:01:25.022Z,82.20
2017-06-09T12:03:53.090Z,78.80
2017-06-09T12:06:21.190Z,77.50
2017-06-09T12:08:50.026Z,74.20
2017-06-09T12:11:18.086Z,74.10
2017-06-09T12:13:46.155Z,72.00
2017-06-09T12:16:14.238Z,71.90
2017-06-09T12:18:42.323Z,70.20
2017-06-09T12:21:10.510Z,72.00
2017-06-09T12:23:39.332Z,71.90
2017-06-09T12:26:08.162Z,71.30
2017-06-09T12:28:36.250Z,71.20
2017-06-09T12:31:04.316Z,72.70
2017-06-09T12:33:32.383Z,71.20
2017-06-09T12:36:00.532Z,73.70
2017-06-09T12:38:29.336Z,73.60
2017-06-09T12:40:57.403Z,73.40
2017-06-09T12:43:25.508Z,73.20
2017-06-09T12:45:53.566Z,73.30
2017-06-09T12:48:21.618Z,74.40
2017-06-09T12:50:49.710Z,74.80
2017-06-09T12:53:17.755Z,72.60
2017-06-09T12:55:45.837Z,73.30
2017-06-09T12:58:13.996Z,71.20
2017-06-09T13:00:42.804Z,70.70
2017-06-09T13:03:10.951Z,70.70
2017-06-09T13:05:39.007Z,67.40
2017-06-09T13:08:07.849Z,65.10
2017-06-09T13:10:35.919Z,65.10
2017-06-09T13:13:04.017Z,64.70
2017-06-09T13:15:32.095Z,64.00
2017-06-09T13:18:00.920Z,64.80
2017-06-09T13:20:28.984Z,64.20
2017-06-09T13:22:57.063Z,64.70
2017-06-09T13:25:25.131Z,62.00
2017-06-09T13:27:53.202Z,63.10
2017-06-09T13:30:21.311Z,62.00
2017-06-09T13:32:49.370Z,60.60
2017-06-09T13:35:17.418Z,62.50
2017-06-09T13:37:46.126Z,61.50
2017-06-09T13:40:14.188Z,60.40
2017-06-09T13:42:42.252Z,61.60
2017-06-09T13:45:10.357Z,61.90
2017-06-09T13:47:38.411Z,61.20
2017-06-09T13:50:07.266Z,61.20
2017-06-09T13:52:35.326Z,61.10
2017-06-09T13:55:03.387Z,61.10
2017-06-09T13:57:31.524Z,62.50
2017-06-09T13:59:59.587Z,60.70
2017-06-09T14:02:28.421Z,59.80
2017-06-09T14:04:56.496Z,59.60
2017-06-09T14:07:24.555Z,60.10
2017-06-09T14:09:52.661Z,60.60
2017-06-09T14:12:20.744Z,60.90
2017-06-09T14:14:48.799Z,61.10
2017-06-09T14:17:16.876Z,62.20
2017-06-09T14:19:44.939Z,61.60
2017-06-09T14:22:12.997Z,59.70
2017-06-09T14:24:41.110Z,61.10
2017-06-09T14:27:09.928Z,59.50
2017-06-09T14:29:38.003Z,59.40
2017-06-09T14:32:06.095Z,58.70
2017-06-09T14:34:34.168Z,58.80
2017-06-09T14:37:02.221Z,57.70
2017-06-09T14:39:30.303Z,58.60
2017-06-09T14:41:59.941Z,57.20
2017-06-09T14:44:28.001Z,57.50
2017-06-09T14:46:56.071Z,58.50
2017-06-09T14:49:24.173Z,58.30
2017-06-09T14:51:52.981Z,57.50
2017-06-09T14:54:21.082Z,57.50
2017-06-09T14:56:49.159Z,58.00
2017-06-09T14:59:17.233Z,58.90
2017-06-09T15:01:45.291Z,58.40
2017-06-09T15:04:13.389Z,58.20
2017-06-09T15:06:41.463Z,58.50
2017-06-09T15:09:09.551Z,59.30
2017-06-09T15:11:38.379Z,61.00
2017-06-09T15:14:06.439Z,60.90
2017-06-09T15:16:34.536Z,60.00
2017-06-09T15:19:02.632Z,58.40
2017-06-09T15:21:31.085Z,63.30
2017-06-09T15:23:59.147Z,59.70
2017-06-09T15:26:27.206Z,62.70
2017-06-09T15:28:55.307Z,61.20
2017-06-09T15:31:23.368Z,59.70
2017-06-09T15:33:51.467Z,60.00
2017-06-09T15:49:19.572Z,63.30
2017-06-09T15:51:47.635Z,59.90
2017-06-09T15:54:15.705Z,61.40
2017-06-09T15:56:43.795Z,57.70
2017-06-09T15:59:11.935Z,58.30
2017-06-09T16:01:40.010Z,58.10
2017-06-09T16:04:08.088Z,57.40
2017-06-09T16:06:36.169Z,55.90
2017-06-09T16:09:04.228Z,51.60
2017-06-09T16:11:32.304Z,52.10
2017-06-09T16:14:01.149Z,49.50
2017-06-09T16:16:29.199Z,49.40
2017-06-09T16:18:57.268Z,48.60
2017-06-09T16:21:25.362Z,48.00
2017-06-09T16:23:53.783Z,47.70
2017-06-09T16:26:22.599Z,45.50
2017-06-09T16:28:50.716Z,45.50
2017-06-09T16:31:19.563Z,46.30
2017-06-09T16:33:47.642Z,46.40
2017-06-09T16:36:15.719Z,45.20
2017-06-09T16:38:43.780Z,45.90
2017-06-09T16:41:11.890Z,45.20
2017-06-09T16:43:40.040Z,44.60
2017-06-09T16:46:08.106Z,44.70
2017-06-09T16:48:36.135Z,45.10
2017-06-09T16:51:05.002Z,44.70
2017-06-09T16:53:33.104Z,44.70
2017-06-09T16:56:01.145Z,44.30
2017-06-09T16:58:29.234Z,45.20
2017-06-09T17:00:57.283Z,45.20
2017-06-09T17:03:25.365Z,45.50
2017-06-09T17:05:54.306Z,45.00
2017-06-09T17:08:22.351Z,44.70
2017-06-09T17:10:51.168Z,44.70
2017-06-09T17:13:19.260Z,44.60
2017-06-09T17:15:47.322Z,44.20
2017-06-09T17:18:15.428Z,45.00
2017-06-09T17:20:43.495Z,43.70
2017-06-09T17:23:11.572Z,44.70
2017-06-09T17:25:39.691Z,43.80
2017-06-09T17:28:08.498Z,44.30
2017-06-09T17:30:36.566Z,44.20
2017-06-09T17:33:04.661Z,43.60
2017-06-09T17:35:32.817Z,44.20
2017-06-09T17:38:00.847Z,43.50
2017-06-09T17:40:29.695Z,45.30
2017-06-09T17:42:57.775Z,45.30
2017-06-09T17:45:25.863Z,45.30
2017-06-09T17:47:53.916Z,44.30
2017-06-09T17:50:21.971Z,44.90
2017-06-09T17:52:50.059Z,45.50
2017-06-09T17:55:18.111Z,46.50
2017-06-09T17:57:46.195Z,45.50
2017-06-09T18:00:14.287Z,46.40
2017-06-09T18:02:42.867Z,45.50
2017-06-09T18:05:10.931Z,46.40
2017-06-09T18:07:39.035Z,46.30
2017-06-09T18:10:07.071Z,46.40
2017-06-09T18:12:35.244Z,46.20
2017-06-09T18:15:03.307Z,46.20
2017-06-09T18:17:31.395Z,45.80
2017-06-09T18:19:59.471Z,45.40
2017-06-09T18:22:27.524Z,45.40
2017-06-09T18:24:55.595Z,46.10
2017-06-09T18:27:23.658Z,46.40
2017-06-09T18:29:52.080Z,47.70
2017-06-09T18:32:20.136Z,47.30
2017-06-09T18:34:48.236Z,46.30
2017-06-09T18:37:17.071Z,46.70
2017-06-09T18:39:45.141Z,46.60
2017-06-09T18:42:13.283Z,46.90
2017-06-09T18:44:44.010Z,47.10
2017-06-09T18:47:12.075Z,46.60
2017-06-09T18:49:40.124Z,47.10
2017-06-09T18:52:08.992Z,46.90
2017-06-09T18:54:37.073Z,46.70
2017-06-09T18:57:05.483Z,46.80
2017-06-09T18:59:34.304Z,47.40
2017-06-09T19:02:02.403Z,47.40
2017-06-09T19:04:30.518Z,48.20
2017-06-09T19:06:59.404Z,48.80
2017-06-09T19:09:27.474Z,48.80
2017-06-09T19:11:56.289Z,49.50
2017-06-09T19:14:24.343Z,48.80
2017-06-09T19:16:52.421Z,48.70
2017-06-09T19:19:20.495Z,49.10
2017-06-09T19:21:48.599Z,49.30
2017-06-09T19:24:16.679Z,50.00
2017-06-09T19:26:45.938Z,50.10
2017-06-09T19:29:14.044Z,49.90
2017-06-09T19:31:42.855Z,50.20
2017-06-09T19:34:10.907Z,50.30
2017-06-09T19:36:38.979Z,50.40
2017-06-09T19:39:07.050Z,50.20
2017-06-09T19:41:35.133Z,51.20
2017-06-09T19:44:03.208Z,52.00
2017-06-09T19:46:32.043Z,51.10
2017-06-09T19:49:00.675Z,51.10
2017-06-09T19:51:28.731Z,51.40
2017-06-09T19:53:56.830Z,51.50
2017-06-09T19:56:25.659Z,52.30
2017-06-09T19:58:53.804Z,52.20
2017-06-09T20:01:22.636Z,52.40
2017-06-09T20:03:50.691Z,52.30
2017-06-09T20:06:18.769Z,53.10
2017-06-09T20:08:46.868Z,52.90
2017-06-09T20:11:15.008Z,52.50
2017-06-09T20:13:43.082Z,52.70
2017-06-09T20:16:11.175Z,53.70
2017-06-09T20:18:39.482Z,53.00
2017-06-09T20:21:07.521Z,53.40
2017-06-09T20:23:35.699Z,53.60
2017-06-09T20:26:03.868Z,53.70
2017-06-09T20:28:31.945Z,54.40
2017-06-09T20:31:00.046Z,54.40
2017-06-09T20:33:28.897Z,54.50
2017-06-09T20:35:56.948Z,54.50
2017-06-09T20:38:25.015Z,54.40
2017-06-09T20:40:53.107Z,54.70
2017-06-09T20:43:21.164Z,54.90
2017-06-09T20:45:49.263Z,55.10
2017-06-09T20:48:17.347Z,55.50
2017-06-09T20:50:45.404Z,55.50
2017-06-09T20:53:14.123Z,55.90
2017-06-09T20:55:42.173Z,55.70
2017-06-09T20:58:10.350Z,55.60
2017-06-09T21:00:38.450Z,55.70
2017-06-09T21:03:06.509Z,55.50
2017-06-09T21:05:34.575Z,55.80
2017-06-09T21:08:02.647Z,55.50
2017-06-09T21:10:30.720Z,55.40
2017-06-09T21:12:58.808Z,55.40
2017-06-09T21:15:26.858Z,55.80
2017-06-09T21:17:54.938Z,56.10
2017-06-09T21:20:22.994Z,56.30
2017-06-09T21:22:51.065Z,56.40
2017-06-09T21:25:19.107Z,56.20
2017-06-09T21:27:47.987Z,56.00
2017-06-09T21:30:17.811Z,56.00
2017-06-09T21:32:46.646Z,56.60
2017-06-09T21:35:14.721Z,56.50
2017-06-09T21:37:43.386Z,56.60
2017-06-09T21:40:11.429Z,56.70
2017-06-09T21:42:40.300Z,56.80
2017-06-09T21:45:08.349Z,56.70
2017-06-09T21:47:37.175Z,56.50
2017-06-09T21:50:05.251Z,56.40
2017-06-09T21:52:33.323Z,56.50
2017-06-09T21:55:01.426Z,56.90
2017-06-09T21:57:29.486Z,56.90
2017-06-09T21:59:57.554Z,56.60
2017-06-09T22:02:25.639Z,56.70
2017-06-09T22:04:53.674Z,56.90
2017-06-09T22:07:21.739Z,56.90
2017-06-09T22:09:49.818Z,57.30
2017-06-09T22:12:17.919Z,57.60
2017-06-09T22:14:45.997Z,58.00
2017-06-09T22:17:14.059Z,57.40
2017-06-09T22:19:42.755Z,57.50
2017-06-09T22:22:10.805Z,57.60
2017-06-09T22:24:38.860Z,58.10
2017-06-09T22:27:06.931Z,58.30
2017-06-09T22:29:35.026Z,58.40
2017-06-09T22:32:03.106Z,58.10
2017-06-09T22:34:31.180Z,58.20
2017-06-09T22:36:59.239Z,58.00
2017-06-09T22:39:27.331Z,58.00
2017-06-09T22:41:55.423Z,57.80
2017-06-09T22:44:24.236Z,58.00
2017-06-09T22:46:52.324Z,58.00
2017-06-09T22:49:20.372Z,58.10
2017-06-09T22:51:48.458Z,58.00
2017-06-09T22:54:16.510Z,58.00
2017-06-09T22:56:44.579Z,57.90
2017-06-09T22:59:12.651Z,57.60
2017-06-09T23:01:40.724Z,57.30
2017-06-09T23:04:08.799Z,57.40
2017-06-09T23:06:36.922Z,57.30
2017-06-09T23:09:04.991Z,57.80
2017-06-09T23:11:33.062Z,57.30
2017-06-09T23:14:01.148Z,57.50
2017-06-09T23:16:29.203Z,56.70
2017-06-09T23:18:57.291Z,57.30
2017-06-09T23:21:31.823Z,57.50
2017-06-09T23:24:00.647Z,57.50
2017-06-09T23:26:28.712Z,57.50
2017-06-09T23:28:56.791Z,57.60
2017-06-09T23:31:45.670Z,57.60
2017-06-09T23:34:13.761Z,57.80
2017-06-09T23:36:41.842Z,57.50
2017-06-09T23:39:09.927Z,57.50
2017-06-09T23:41:38.775Z,57.30
2017-06-09T23:44:06.823Z,57.30
2017-06-09T23:46:34.892Z,57.40
2017-06-09T23:49:02.955Z,57.20
2017-06-09T23:51:31.052Z,57.30
2017-06-09T23:53:59.894Z,58.00
2017-06-09T23:56:28.759Z,57.80
2017-06-09T23:58:56.820Z,57.20
